Time;durP1;ratioP1;P1;durP2;ratioP2;P2;SDS_P1;SDS_P2;PMS_P1;PMS_P2;Temp;Humidity;BMP_temperature;BMP_pressure;BME280_temperature;BME280_humidity;BME280_pressure;Samples;Min_cycle;Max_cycle;Signal;HPM_P1;HPM_P2
2022/07/05 00:00:59;;;;;;;14.98;10.50;;;;;;;18.39;76.47;94697.60;1643332;86;21231;-54
2022/07/05 00:03:29;;;;;;;17.82;11.12;;;;;;;18.38;76.28;94705.21;1640484;86;20916;-54
2022/07/05 00:05:58;;;;;;;15.03;10.80;;;;;;;18.30;76.11;94701.35;1634161;86;21025;-56
2022/07/05 00:08:27;;;;;;;14.60;9.78;;;;;;;18.22;76.22;94697.48;1630071;86;21243;-54
2022/07/05 00:10:55;;;;;;;13.20;9.75;;;;;;;18.16;76.46;94695.18;1633295;86;20990;-54
2022/07/05 00:13:24;;;;;;;14.07;10.20;;;;;;;18.17;76.76;94696.70;1626805;86;21268;-54
2022/07/05 00:15:53;;;;;;;12.45;10.43;;;;;;;18.19;76.73;94699.88;1625164;86;21464;-54
2022/07/05 00:18:21;;;;;;;16.55;10.68;;;;;;;18.21;76.61;94698.75;1620975;86;21019;-56
2022/07/05 00:20:49;;;;;;;14.15;10.95;;;;;;;18.15;76.82;94703.41;1629774;86;21206;-54
2022/07/05 00:23:17;;;;;;;14.47;10.38;;;;;;;18.08;77.08;94706.63;1642256;86;20961;-54
2022/07/05 00:25:46;;;;;;;13.65;10.20;;;;;;;18.01;77.02;94712.02;1640910;86;21273;-54
2022/07/05 00:28:15;;;;;;;18.98;10.93;;;;;;;17.97;77.14;94707.96;1639713;86;21069;-55
2022/07/05 00:30:43;;;;;;;14.93;11.00;;;;;;;17.92;77.68;94710.05;1643798;86;21540;-55
2022/07/05 00:33:10;;;;;;;12.37;10.88;;;;;;;17.89;78.07;94699.91;1621139;86;21053;-55
2022/07/05 00:35:39;;;;;;;12.35;10.45;;;;;;;17.86;78.34;94700.91;1620363;86;21023;-54
2022/07/05 00:38:07;;;;;;;17.60;10.88;;;;;;;17.82;78.36;94698.98;1647840;87;21816;-54
2022/07/05 00:40:36;;;;;;;11.12;9.63;;;;;;;17.80;79.42;94702.90;1623141;87;21651;-54
2022/07/05 00:43:04;;;;;;;15.90;9.58;;;;;;;17.80;79.65;94704.29;1650074;86;21080;-53
2022/07/05 00:45:32;;;;;;;14.63;9.58;;;;;;;17.80;79.34;94704.29;1637944;86;21021;-54
2022/07/05 00:48:00;;;;;;;12.78;9.40;;;;;;;17.70;79.34;94701.54;1642186;86;21088;-53
2022/07/05 00:50:28;;;;;;;12.70;9.60;;;;;;;17.63;79.52;94702.00;1632532;85;21750;-53
2022/07/05 00:52:57;;;;;;;13.70;9.60;;;;;;;17.57;79.30;94713.69;1639377;86;21012;-53
2022/07/05 00:55:25;;;;;;;11.73;9.65;;;;;;;17.49;79.55;94707.05;1635034;86;21032;-53
2022/07/05 00:57:55;;;;;;;14.65;10.88;;;;;;;17.47;79.60;94713.09;1643822;86;21005;-53
2022/07/05 01:00:22;;;;;;;14.75;10.98;;;;;;;17.45;79.80;94712.09;1613899;86;21079;-53
2022/07/05 01:02:50;;;;;;;17.82;12.15;;;;;;;17.41;79.97;94712.30;1619304;86;21158;-53
2022/07/05 01:05:19;;;;;;;12.50;10.82;;;;;;;17.37;80.39;94724.89;1636294;86;20981;-53
2022/07/05 01:07:46;;;;;;;17.30;10.95;;;;;;;17.33;80.87;94718.76;1634239;86;21452;-53
2022/07/05 01:10:15;;;;;;;14.45;11.43;;;;;;;17.33;80.83;94720.14;1622497;86;21037;-53
2022/07/05 01:12:43;;;;;;;15.28;11.60;;;;;;;17.33;81.15;94715.98;1621159;86;21153;-54
2022/07/05 01:15:11;;;;;;;15.13;11.68;;;;;;;17.31;81.38;94718.48;1646376;86;21777;-54
2022/07/05 01:17:39;;;;;;;18.92;12.28;;;;;;;17.30;81.78;94715.58;1645140;86;20992;-54
2022/07/05 01:20:08;;;;;;;15.78;11.28;;;;;;;17.28;81.79;94723.64;1649901;86;20984;-54
2022/07/05 01:22:52;;;;;;;13.30;9.85;;;;;;;17.25;81.94;94721.20;1628452;86;20979;-55
2022/07/05 01:25:24;;;;;;;12.40;9.50;;;;;;;17.24;82.28;94727.28;1646479;86;20988;-55
2022/07/05 01:27:53;;;;;;;18.67;11.28;;;;;;;17.17;82.39;94729.08;1630921;87;21240;-53
2022/07/05 01:30:21;;;;;;;14.63;11.38;;;;;;;17.11;82.41;94726.23;1642071;86;21016;-53
2022/07/05 01:32:49;;;;;;;15.50;11.88;;;;;;;17.12;82.56;94727.02;1616810;87;21042;-54
2022/07/05 01:35:20;;;;;;;17.00;10.98;;;;;;;17.10;82.22;94722.58;1617587;87;21021;-54
2022/07/05 01:37:49;;;;;;;14.70;10.18;;;;;;;17.05;82.19;94720.48;1631603;85;21025;-54
2022/07/05 01:40:18;;;;;;;13.13;10.68;;;;;;;17.01;82.33;94722.10;1643516;86;21297;-54
2022/07/05 01:42:46;;;;;;;13.85;10.80;;;;;;;16.97;82.29;94722.17;1645519;86;21033;-55
2022/07/05 01:45:38;;;;;;;18.85;11.43;;;;;;;16.93;82.71;94720.23;1648647;86;20973;-55
2022/07/05 01:47:45;;;;;;;15.98;12.68;;;;;;;16.94;82.92;94725.29;1633583;87;21547;-52
2022/07/05 01:50:15;;;;;;;16.25;11.03;;;;;;;16.94;83.06;94727.32;1640686;86;21030;-55
2022/07/05 01:52:45;;;;;;;12.58;11.25;;;;;;;16.97;83.03;94730.51;1650875;86;21218;-54
2022/07/05 01:55:13;;;;;;;13.88;10.98;;;;;;;16.96;82.75;94729.77;1640355;86;21087;-53
2022/07/05 01:57:42;;;;;;;17.70;11.93;;;;;;;16.94;82.59;94727.32;1617138;86;21646;-54
2022/07/05 02:00:11;;;;;;;15.03;11.90;;;;;;;16.96;82.71;94731.77;1636947;86;21054;-54
2022/07/05 02:02:42;;;;;;;19.27;11.83;;;;;;;16.96;82.76;94729.77;1638538;85;21615;-54
2022/07/05 02:05:12;;;;;;;14.28;10.82;;;;;;;17.00;82.54;94734.47;1644123;85;21238;-54
2022/07/05 02:07:49;;;;;;;19.35;10.75;;;;;;;17.00;82.40;94729.53;1643704;86;21095;-54
2022/07/05 02:10:17;;;;;;;14.87;12.23;;;;;;;17.06;82.51;94733.16;1634585;86;21056;-53
2022/07/05 02:12:46;;;;;;;12.90;11.25;;;;;;;17.08;82.73;94734.81;1646349;87;21036;-55
2022/07/05 02:15:14;;;;;;;13.55;10.80;;;;;;;17.06;82.93;94733.16;1648837;87;21092;-53
2022/07/05 02:17:44;;;;;;;15.93;11.03;;;;;;;17.03;82.96;94729.94;1633801;86;22029;-53
2022/07/05 02:20:12;;;;;;;15.40;10.35;;;;;;;16.99;83.13;94729.39;1630002;86;20979;-53
2022/07/05 02:22:42;;;;;;;14.95;10.88;;;;;;;16.95;83.06;94726.06;1633485;86;20985;-54
2022/07/05 02:25:10;;;;;;;16.27;11.33;;;;;;;16.96;83.21;94728.98;1643801;86;21032;-54
2022/07/05 02:27:38;;;;;;;15.18;11.03;;;;;;;16.93;83.16;94729.32;1636204;86;20972;-54
2022/07/05 02:30:08;;;;;;;15.78;12.00;;;;;;;16.94;83.17;94730.10;1639473;86;21466;-54
2022/07/05 02:32:38;;;;;;;16.70;11.30;;;;;;;16.93;82.83;94731.36;1630266;86;20979;-54
2022/07/05 02:35:09;;;;;;;16.35;10.82;;;;;;;16.84;82.62;94721.76;1610349;87;21300;-54
2022/07/05 02:37:42;;;;;;;12.30;10.28;;;;;;;16.77;82.66;94722.94;1640413;86;21028;-54
2022/07/05 02:40:11;;;;;;;15.43;10.85;;;;;;;16.74;82.93;94728.09;1642173;86;21453;-54
2022/07/05 02:42:41;;;;;;;14.45;11.10;;;;;;;16.75;83.20;94728.87;1638706;86;21176;-53
2022/07/05 02:45:11;;;;;;;16.42;11.55;;;;;;;16.74;83.20;94735.03;1653124;86;20977;-54
2022/07/05 02:47:41;;;;;;;16.42;10.95;;;;;;;16.72;83.32;94732.63;1629739;86;20997;-54
2022/07/05 02:50:10;;;;;;;16.02;11.40;;;;;;;16.73;83.24;94736.92;1630789;86;20984;-54
2022/07/05 02:52:39;;;;;;;14.80;10.68;;;;;;;16.71;83.07;94738.05;1646118;86;20993;-54
2022/07/05 02:55:09;;;;;;;16.62;11.68;;;;;;;16.67;83.33;94741.63;1649765;86;21094;-54
2022/07/05 02:57:40;;;;;;;14.18;10.72;;;;;;;16.63;83.59;94741.08;1644865;86;21559;-54
2022/07/05 03:00:11;;;;;;;17.50;11.83;;;;;;;16.61;83.80;94738.03;1640767;86;21093;-54
2022/07/05 03:02:41;;;;;;;15.90;11.97;;;;;;;16.63;83.91;94741.08;1636124;86;20995;-54
2022/07/05 03:05:10;;;;;;;14.18;11.15;;;;;;;16.66;83.77;94751.22;1622159;86;20973;-55
2022/07/05 03:07:40;;;;;;;14.65;10.95;;;;;;;16.69;83.59;94746.10;1610777;86;21427;-54
2022/07/05 03:10:09;;;;;;;16.80;10.88;;;;;;;16.71;83.42;94746.38;1633912;86;21013;-54
2022/07/05 03:12:37;;;;;;;15.10;11.40;;;;;;;16.66;83.50;94749.22;1625668;86;21570;-54
2022/07/05 03:15:08;;;;;;;19.25;11.53;;;;;;;16.61;83.55;94742.20;1631377;86;21577;-54
2022/07/05 03:17:37;;;;;;;20.37;12.75;;;;;;;16.62;83.60;94746.50;1641363;86;20989;-54
2022/07/05 03:20:07;;;;;;;16.10;12.50;;;;;;;16.60;83.64;94745.61;1626777;86;21784;-54
2022/07/05 03:22:35;;;;;;;15.88;10.78;;;;;;;16.62;83.74;94757.00;1632844;86;21484;-54
2022/07/05 03:25:04;;;;;;;21.25;12.88;;;;;;;16.63;83.76;94754.36;1649038;86;21115;-54
2022/07/05 03:27:33;;;;;;;24.72;13.98;;;;;;;16.61;83.92;94759.64;1621536;86;20991;-54
2022/07/05 03:30:02;;;;;;;18.05;13.68;;;;;;;16.59;84.08;94757.20;1632159;86;21019;-56
2022/07/05 03:32:31;;;;;;;23.52;13.15;;;;;;;16.57;84.36;94755.53;1636124;86;21421;-55
2022/07/05 03:35:01;;;;;;;18.20;12.88;;;;;;;16.60;84.42;94757.34;1612306;86;21101;-54
2022/07/05 03:37:30;;;;;;;23.90;12.78;;;;;;;16.62;84.37;94757.61;1620666;86;21038;-55
2022/07/05 03:39:58;;;;;;;22.60;12.70;;;;;;;16.61;84.66;94754.09;1617401;86;22704;-54
2022/07/05 03:42:27;;;;;;;25.25;13.88;;;;;;;16.64;84.82;94752.33;1618584;86;21085;-54
2022/07/05 03:44:55;;;;;;;27.32;15.25;;;;;;;16.69;84.84;94748.87;1623977;86;21044;-54
2022/07/05 03:47:25;;;;;;;27.77;14.25;;;;;;;16.75;84.68;94749.70;1643885;86;21021;-54
2022/07/05 03:49:54;;;;;;;16.35;12.05;;;;;;;16.82;84.38;94747.88;1638969;86;20981;-54
2022/07/05 03:52:22;;;;;;;18.02;11.60;;;;;;;16.86;83.77;94744.27;1620292;86;21095;-54
2022/07/05 03:54:50;;;;;;;25.45;12.85;;;;;;;16.88;83.76;94747.34;1644809;86;20969;-54
2022/07/05 03:57:20;;;;;;;18.85;13.25;;;;;;;16.92;83.80;94752.06;1640815;86;21115;-54
2022/07/05 03:59:49;;;;;;;17.80;13.03;;;;;;;16.98;83.63;94745.94;1637054;86;21513;-54
2022/07/05 04:02:17;;;;;;;26.33;15.60;;;;;;;17.03;83.42;94745.22;1641191;86;21021;-54
2022/07/05 04:04:45;;;;;;;24.47;16.45;;;;;;;17.06;83.27;94746.41;1619995;86;21956;-54
2022/07/05 04:07:15;;;;;;;28.50;15.80;;;;;;;17.11;83.28;94747.09;1628822;86;21532;-54
2022/07/05 04:09:45;;;;;;;22.27;15.90;;;;;;;17.19;83.21;94751.59;1643348;86;21095;-54
2022/07/05 04:12:14;;;;;;;24.40;17.50;;;;;;;17.29;82.97;94755.77;1639735;86;20957;-54
2022/07/05 04:14:44;;;;;;;36.60;22.93;;;;;;;17.37;82.55;94754.09;1639368;87;21616;-55
2022/07/05 04:17:11;;;;;;;30.72;20.50;;;;;;;17.40;82.29;94748.94;1628509;86;20975;-54
2022/07/05 04:19:41;;;;;;;31.48;18.35;;;;;;;17.50;82.04;94755.23;1629676;86;21472;-54
2022/07/05 04:22:09;;;;;;;21.35;15.38;;;;;;;17.63;81.60;94750.70;1658534;86;21103;-55
2022/07/05 04:25:16;;;;;;;21.93;13.62;;;;;;;17.75;80.85;94750.91;1626395;86;21129;-54
2022/07/05 04:27:07;;;;;;;18.77;13.28;;;;;;;17.82;80.29;94758.19;1628669;86;21433;-53
2022/07/05 04:29:35;;;;;;;17.90;13.00;;;;;;;17.84;79.73;94747.32;1630264;86;20989;-53
2022/07/05 04:32:04;;;;;;;23.95;12.63;;;;;;;17.89;78.95;94744.45;1633201;86;21114;-55
2022/07/05 04:34:33;;;;;;;18.23;11.45;;;;;;;17.92;78.67;94739.28;1632310;86;21569;-53
2022/07/05 04:37:02;;;;;;;20.17;13.93;;;;;;;17.96;78.25;94748.16;1633077;86;21115;-54
2022/07/05 04:39:30;;;;;;;20.88;13.68;;;;;;;17.96;78.12;94743.98;1641749;86;20996;-53
2022/07/05 04:42:00;;;;;;;25.52;13.70;;;;;;;18.00;78.03;94743.16;1648113;86;21468;-53
2022/07/05 04:44:28;;;;;;;19.35;14.18;;;;;;;18.12;77.81;94739.17;1641157;86;21504;-53
2022/07/05 04:46:56;;;;;;;19.92;13.90;;;;;;;18.23;77.40;94735.22;1613787;87;21878;-54
2022/07/05 04:49:25;;;;;;;23.95;13.98;;;;;;;18.32;76.77;94731.51;1639962;86;21028;-55
2022/07/05 04:51:53;;;;;;;24.27;12.90;;;;;;;18.41;76.08;94732.69;1625318;86;22587;-54
2022/07/05 04:54:22;;;;;;;18.30;11.95;;;;;;;18.49;75.88;94740.08;1636653;86;21033;-55
2022/07/05 04:56:50;;;;;;;17.17;11.88;;;;;;;18.58;75.27;94734.31;1628600;86;20976;-54
2022/07/05 04:59:18;;;;;;;19.92;11.88;;;;;;;18.66;74.55;94738.80;1614771;86;21963;-54
2022/07/05 05:01:47;;;;;;;17.55;11.35;;;;;;;18.70;74.25;94734.52;1640542;86;21242;-55
2022/07/05 05:04:16;;;;;;;16.93;11.15;;;;;;;18.76;73.89;94731.73;1636999;86;21053;-55
2022/07/05 05:06:44;;;;;;;15.15;11.33;;;;;;;18.82;73.57;94731.89;1642161;86;21016;-56
2022/07/05 05:09:13;;;;;;;16.97;10.95;;;;;;;18.95;73.11;94726.63;1624458;86;21126;-55
2022/07/05 05:11:41;;;;;;;20.10;12.78;;;;;;;19.08;72.47;94732.52;1642540;86;21844;-56
2022/07/05 05:14:09;;;;;;;23.98;17.92;;;;;;;19.19;72.29;94724.19;1629660;86;21088;-56
2022/07/05 05:16:37;;;;;;;18.35;11.68;;;;;;;19.31;71.95;94727.14;1630343;86;21637;-56
2022/07/05 05:19:05;;;;;;;15.28;12.10;;;;;;;19.43;71.36;94719.56;1621511;86;21132;-57
2022/07/05 05:21:33;;;;;;;18.67;12.33;;;;;;;19.52;70.83;94715.14;1637656;86;21121;-59
2022/07/05 05:24:02;;;;;;;17.45;11.60;;;;;;;19.62;70.30;94717.19;1634219;86;21218;-57
2022/07/05 05:26:30;;;;;;;15.32;11.53;;;;;;;19.68;70.07;94722.12;1655851;86;21030;-57
2022/07/05 05:28:58;;;;;;;18.90;11.73;;;;;;;19.77;69.94;94725.31;1656200;86;21467;-57
2022/07/05 05:31:28;;;;;;;17.55;11.43;;;;;;;19.83;70.00;94724.05;1652110;83;21709;-57
2022/07/05 05:33:57;;;;;;;16.97;11.15;;;;;;;19.94;69.88;94722.63;1655063;85;21089;-57
2022/07/05 05:36:25;;;;;;;16.60;12.30;;;;;;;20.08;69.40;94725.84;1620896;86;21464;-57
2022/07/05 05:38:53;;;;;;;14.47;11.83;;;;;;;20.19;68.86;94721.65;1646456;84;21067;-58
2022/07/05 05:41:22;;;;;;;16.90;12.15;;;;;;;20.32;68.27;94719.07;1663381;83;22587;-58
2022/07/05 05:43:49;;;;;;;13.62;10.78;;;;;;;20.41;67.77;94716.77;1668738;83;21715;-56
2022/07/05 05:46:18;;;;;;;51.20;41.63;;;;;;;20.51;67.32;94720.05;1639360;85;21131;-60
2022/07/05 05:48:46;;;;;;;22.85;14.87;;;;;;;20.64;66.95;94717.48;1654599;84;21867;-57
2022/07/05 05:51:15;;;;;;;18.67;12.80;;;;;;;20.74;66.52;94715.94;1655547;83;21043;-58
2022/07/05 05:53:45;;;;;;;19.92;12.55;;;;;;;20.82;66.12;94716.29;1656715;85;21067;-57
2022/07/05 05:56:14;;;;;;;13.68;10.93;;;;;;;20.89;66.01;94716.42;1651494;83;21086;-57
2022/07/05 05:58:42;;;;;;;15.28;11.45;;;;;;;20.98;65.59;94717.52;1647698;83;21896;-56
2022/07/05 06:01:10;;;;;;;13.72;10.93;;;;;;;21.06;65.10;94708.70;1636098;85;21175;-58
2022/07/05 06:03:38;;;;;;;16.90;11.88;;;;;;;21.15;65.01;94711.95;1666330;83;21443;-57
2022/07/05 06:06:06;;;;;;;14.73;11.40;;;;;;;21.29;64.59;94710.13;1646263;84;21152;-61
2022/07/05 06:08:35;;;;;;;13.70;11.28;;;;;;;21.38;64.27;94702.80;1646423;83;21110;-66
2022/07/05 06:11:06;;;;;;;14.05;11.55;;;;;;;21.50;63.64;94704.27;1651458;84;21072;-62
2022/07/05 06:13:34;;;;;;;27.73;19.48;;;;;;;21.63;62.67;94708.02;1651800;85;21821;-58
2022/07/05 06:16:05;;;;;;;19.60;10.82;;;;;;;21.74;62.26;94697.38;1627020;85;21118;-55
2022/07/05 06:18:34;;;;;;;13.10;11.15;;;;;;;21.86;62.35;94689.02;1662538;84;21057;-56
2022/07/05 06:21:02;;;;;;;14.30;10.78;;;;;;;22.03;62.03;94690.38;1662646;84;21093;-57
2022/07/05 06:23:30;;;;;;;18.25;11.70;;;;;;;22.19;61.00;94688.08;1650190;83;21569;-58
2022/07/05 06:25:58;;;;;;;13.22;10.23;;;;;;;22.32;60.44;94688.95;1648511;84;21292;-57
2022/07/05 06:28:27;;;;;;;15.65;11.20;;;;;;;22.43;60.08;94682.51;1654339;86;21053;-58
2022/07/05 06:30:55;;;;;;;16.80;10.45;;;;;;;22.55;59.81;94679.71;1648853;85;21083;-64
2022/07/05 06:33:23;;;;;;;17.95;10.75;;;;;;;22.69;59.95;94682.09;1663821;83;21088;-62
2022/07/05 06:35:51;;;;;;;13.58;11.38;;;;;;;22.85;59.40;94681.80;1649712;84;22046;-59
2022/07/05 06:38:21;;;;;;;17.95;11.28;;;;;;;23.00;59.06;94678.66;1660416;85;21283;-60
2022/07/05 06:40:49;;;;;;;16.80;11.57;;;;;;;23.15;58.73;94676.84;1659829;84;20997;-58
2022/07/05 06:43:17;;;;;;;13.90;11.00;;;;;;;23.31;58.28;94677.27;1643082;85;21081;-57
2022/07/05 06:46:02;;;;;;;15.88;11.15;;;;;;;23.45;57.68;94673.23;1642464;85;21091;-59
2022/07/05 06:48:30;;;;;;;14.50;10.90;;;;;;;23.59;57.27;94672.77;1644900;84;21048;-57
2022/07/05 06:50:58;;;;;;;20.90;11.60;;;;;;;23.71;57.01;94678.33;1666078;85;22075;-56
2022/07/05 06:53:27;;;;;;;13.58;10.80;;;;;;;23.84;56.95;94671.40;1671503;85;20978;-56
2022/07/05 06:55:55;;;;;;;15.72;11.40;;;;;;;23.96;56.90;94669.91;1662879;85;21019;-58
2022/07/05 06:58:22;;;;;;;22.50;12.33;;;;;;;24.09;56.52;94667.91;1639415;85;21080;-61
2022/07/05 07:00:50;;;;;;;13.18;10.63;;;;;;;24.21;56.41;94666.41;1639182;84;21255;-62
2022/07/05 07:03:18;;;;;;;16.30;11.35;;;;;;;24.31;56.12;94660.48;1645837;85;21742;-56
2022/07/05 07:05:47;;;;;;;15.65;10.75;;;;;;;24.43;56.05;94655.41;1649336;84;21564;-58
2022/07/05 07:11:02;;;;;;;17.20;11.85;;;;;;;24.64;55.62;94652.09;1641342;84;22250;-62
2022/07/05 07:13:30;;;;;;;14.00;11.22;;;;;;;24.78;55.78;94653.62;1652383;84;21652;-58
2022/07/05 07:15:59;;;;;;;15.75;11.40;;;;;;;24.91;56.01;94648.73;1646780;84;21311;-59
2022/07/05 07:18:27;;;;;;;16.93;12.53;;;;;;;25.07;56.22;94648.27;1647153;85;21732;-57
2022/07/05 07:20:56;;;;;;;15.28;11.63;;;;;;;25.27;56.83;94647.64;1655828;84;21000;-58
2022/07/05 07:23:26;;;;;;;16.85;12.93;;;;;;;25.46;56.96;94651.05;1654057;84;21079;-60
2022/07/05 07:25:54;;;;;;;20.05;13.30;;;;;;;25.63;56.90;94647.20;1660974;84;21166;-57
2022/07/05 07:28:24;;;;;;;13.15;11.68;;;;;;;25.79;56.78;94636.16;1644596;85;21108;-57
2022/07/05 07:30:52;;;;;;;21.33;12.78;;;;;;;25.93;56.95;94637.75;1657783;84;21517;-61
2022/07/05 07:33:20;;;;;;;29.27;13.60;;;;;;;26.10;56.97;94637.35;1642816;83;21062;-59
2022/07/05 07:35:48;;;;;;;19.37;12.75;;;;;;;26.30;56.72;94635.91;1657459;84;21082;-58
2022/07/05 07:38:18;;;;;;;12.98;11.65;;;;;;;26.48;56.43;94634.20;1622573;85;21635;-59
2022/07/05 07:40:46;;;;;;;14.85;12.23;;;;;;;26.62;56.54;94630.72;1664419;84;21926;-58
2022/07/05 07:43:14;;;;;;;15.75;11.85;;;;;;;26.76;55.29;94624.30;1653510;85;21110;-58
2022/07/05 07:45:43;;;;;;;16.70;11.50;;;;;;;26.88;53.97;94624.84;1652366;83;32664;-60
2022/07/05 07:48:11;;;;;;;14.83;11.25;;;;;;;26.96;53.46;94614.36;1646101;84;21588;-58
2022/07/05 07:50:42;;;;;;;12.82;10.53;;;;;;;27.08;54.37;94612.73;1657562;84;21029;-62
2022/07/05 07:53:11;;;;;;;13.60;10.87;;;;;;;27.20;53.01;94611.09;1632549;85;21267;-58
2022/07/05 07:55:38;;;;;;;13.68;10.95;;;;;;;27.29;52.76;94610.58;1659563;83;21407;-58
2022/07/05 07:58:08;;;;;;;15.53;10.72;;;;;;;27.43;53.36;94613.34;1675223;83;21242;-63
2022/07/05 08:00:36;;;;;;;14.43;10.55;;;;;;;27.54;52.63;94610.18;1657417;83;21060;-61
2022/07/05 08:03:03;;;;;;;12.93;10.10;;;;;;;27.67;52.44;94596.53;1647133;84;21103;-62
2022/07/05 08:05:32;;;;;;;16.02;11.35;;;;;;;27.78;51.33;94608.27;1650441;84;21378;-58
2022/07/05 08:08:01;;;;;;;13.78;11.05;;;;;;;27.84;50.99;94596.14;1631629;84;21215;-59
2022/07/05 08:10:30;;;;;;;11.03;9.80;;;;;;;27.93;51.29;94601.23;1652911;85;21529;-63
2022/07/05 08:12:58;;;;;;;15.05;10.32;;;;;;;28.06;50.70;94602.47;1653858;84;21050;-63
2022/07/05 08:15:26;;;;;;;13.65;10.88;;;;;;;28.18;50.60;94595.87;1662696;83;21529;-62
2022/07/05 08:23:26;;;;;;;11.48;10.15;;;;;;;28.56;49.66;94579.63;1626903;85;21110;-60
2022/07/05 08:25:53;;;;;;;13.32;10.45;;;;;;;28.75;49.70;94583.48;1639456;85;21052;-64
2022/07/05 08:28:21;;;;;;;12.60;10.90;;;;;;;28.88;48.47;94580.41;1635503;84;21102;-58
2022/07/05 08:30:49;;;;;;;14.07;9.78;;;;;;;28.96;48.19;94574.09;1665245;84;21138;-58
2022/07/05 08:33:18;;;;;;;18.25;10.75;;;;;;;29.08;47.52;94576.58;1648415;84;20966;-56
2022/07/05 08:35:47;;;;;;;15.13;9.75;;;;;;;29.22;46.85;94573.60;1651851;85;21888;-54
2022/07/05 08:38:15;;;;;;;18.32;9.93;;;;;;;29.35;46.69;94566.27;1665236;84;21136;-58
2022/07/05 08:40:50;;;;;;;13.13;9.48;;;;;;;29.54;46.59;94569.41;1655330;83;21807;-57
2022/07/05 08:43:18;;;;;;;13.35;10.40;;;;;;;29.74;45.61;94572.59;1658411;85;22367;-61
2022/07/05 08:45:46;;;;;;;20.27;10.18;;;;;;;29.91;46.03;94574.17;1635079;86;20967;-57
2022/07/05 08:48:18;;;;;;;28.27;19.80;;;;;;;30.10;44.70;94571.60;1654460;84;21100;-61
2022/07/05 08:50:47;;;;;;;16.80;10.95;;;;;;;30.18;44.06;94563.80;1652044;84;21388;-62
2022/07/05 08:53:22;;;;;;;12.30;9.20;;;;;;;30.28;44.47;94566.06;1651991;84;21063;-59
2022/07/05 08:55:50;;;;;;;11.20;10.05;;;;;;;30.40;44.86;94568.52;1655454;84;21284;-55
2022/07/05 08:58:23;;;;;;;18.02;10.45;;;;;;;30.53;43.94;94558.25;1651115;84;21715;-58
2022/07/05 09:00:51;;;;;;;12.00;9.30;;;;;;;30.56;43.88;94565.63;1660418;83;21314;-54
2022/07/05 09:03:19;;;;;;;11.00;9.55;;;;;;;30.48;43.48;94565.61;1643995;83;21646;-61
2022/07/05 09:05:48;;;;;;;11.93;9.73;;;;;;;30.29;43.65;94557.63;1657029;84;21438;-59
2022/07/05 09:08:15;;;;;;;13.20;9.45;;;;;;;30.15;43.94;94553.58;1667301;83;21884;-58
2022/07/05 09:10:43;;;;;;;13.45;10.18;;;;;;;30.04;43.51;94549.04;1655790;84;22242;-59
2022/07/05 09:13:11;;;;;;;12.07;9.70;;;;;;;30.01;43.95;94550.94;1650379;84;21096;-59
2022/07/05 09:15:40;;;;;;;11.43;9.85;;;;;;;30.05;43.62;94542.03;1661400;84;21018;-59
2022/07/05 09:18:10;;;;;;;13.20;9.80;;;;;;;30.10;43.30;94544.64;1656187;84;21086;-55
2022/07/05 09:20:38;;;;;;;13.10;9.50;;;;;;;30.17;43.03;94539.55;1646204;84;21908;-58
2022/07/05 09:23:06;;;;;;;10.75;8.60;;;;;;;30.26;43.06;94533.24;1647332;84;21695;-57
2022/07/05 09:25:35;;;;;;;15.53;9.70;;;;;;;30.38;42.84;94534.27;1646070;84;21578;-57
2022/07/05 09:28:04;;;;;;;13.35;10.18;;;;;;;30.55;43.14;94530.04;1647876;83;21616;-68
2022/07/05 09:30:38;;;;;;;10.25;9.20;;;;;;;30.82;42.87;94523.03;1653527;83;21328;-66
2022/07/05 09:33:11;;;;;;;11.68;9.40;;;;;;;31.05;41.48;94528.53;1662422;84;21826;-57
2022/07/05 09:35:42;;;;;;;13.80;8.85;;;;;;;31.28;41.74;94523.36;1669016;84;21186;-57
2022/07/05 09:38:23;;;;;;;11.05;8.83;;;;;;;31.52;42.25;94514.58;1658928;83;21571;-56
2022/07/05 09:41:00;;;;;;;15.03;10.50;;;;;;;31.76;40.24;94510.86;1646302;85;21729;-64
2022/07/05 09:43:29;;;;;;;15.28;9.45;;;;;;;31.85;40.68;94515.16;1639134;85;21023;-59
2022/07/05 09:46:03;;;;;;;12.90;8.75;;;;;;;31.87;40.94;94515.31;1669513;84;21762;-63
2022/07/05 09:48:34;;;;;;;8.75;7.83;;;;;;;31.80;41.20;94511.90;1650013;85;21475;-56
2022/07/05 09:51:12;;;;;;;10.53;9.33;;;;;;;31.72;40.94;94511.28;1654319;83;21472;-63
2022/07/05 09:53:51;;;;;;;10.03;9.00;;;;;;;31.64;41.76;94510.59;1670727;84;21501;-57
2022/07/05 09:56:20;;;;;;;16.73;8.70;;;;;;;31.72;42.18;94508.43;1636650;85;21114;-58
2022/07/05 09:58:48;;;;;;;10.90;9.45;;;;;;;31.87;41.37;94504.59;1645475;83;21865;-60
2022/07/05 10:01:30;;;;;;;12.25;9.83;;;;;;;32.03;41.61;94498.08;1657604;83;21081;-59
2022/07/05 10:04:03;;;;;;;;;;;;;;;32.15;41.56;94502.61;1668285;84;21010;-58
2022/07/05 10:06:33;;;;;;;17.07;9.98;;;;;;;32.29;42.04;94500.12;1660418;84;20182;-60
2022/07/05 10:09:00;;;;;;;13.08;10.70;;;;;;;32.41;40.46;94498.20;1653542;85;21083;-61
2022/07/05 10:11:29;;;;;;;12.30;9.43;;;;;;;32.53;39.72;94494.17;1656931;84;21149;-58
2022/07/05 10:13:58;;;;;;;10.38;9.15;;;;;;;32.69;39.24;94490.37;1657838;84;21129;-57
2022/07/05 10:16:27;;;;;;;14.15;9.25;;;;;;;32.74;40.23;94491.52;1667418;84;21004;-58
2022/07/05 10:18:57;;;;;;;13.30;9.45;;;;;;;32.84;39.60;94491.52;1660001;84;21176;-58
2022/07/05 10:21:28;;;;;;;12.45;9.38;;;;;;;32.95;39.54;94485.22;1660563;84;21003;-60
2022/07/05 10:23:55;;;;;;;11.18;9.03;;;;;;;33.07;39.49;94491.80;1655346;84;21153;-59
2022/07/05 10:26:24;;;;;;;13.22;9.35;;;;;;;33.15;39.16;94483.16;1647510;84;21106;-62
2022/07/05 10:28:53;;;;;;;11.63;8.48;;;;;;;33.23;39.82;94482.37;1649340;84;21030;-61
2022/07/05 10:31:21;;;;;;;11.40;9.08;;;;;;;33.27;39.13;94479.04;1650128;83;21380;-60
2022/07/05 10:33:49;;;;;;;13.62;9.33;;;;;;;33.20;38.88;94480.73;1651408;85;22116;-61
2022/07/05 10:36:17;;;;;;;10.45;8.70;;;;;;;33.23;38.61;94473.05;1655367;85;21220;-61
2022/07/05 10:38:45;;;;;;;15.68;9.70;;;;;;;33.25;39.64;94468.91;1647737;84;21008;-57
2022/07/05 10:41:16;;;;;;;14.90;9.55;;;;;;;33.16;39.23;94475.37;1627283;85;21000;-58
2022/07/05 10:43:44;;;;;;;13.03;9.93;;;;;;;32.99;39.03;94470.56;1647661;84;21172;-57
2022/07/05 10:46:12;;;;;;;12.88;8.63;;;;;;;32.72;39.58;94470.66;1655551;84;21144;-61
2022/07/05 10:48:40;;;;;;;12.75;9.00;;;;;;;32.80;40.05;94464.88;1613991;86;21229;-59
2022/07/05 10:51:15;;;;;;;12.90;9.53;;;;;;;33.13;40.50;94459.47;1632885;84;21577;-63
2022/07/05 10:54:01;;;;;;;10.65;8.23;;;;;;;33.60;39.68;94465.08;1650346;85;21123;-58
2022/07/05 10:56:28;;;;;;;12.00;8.80;;;;;;;34.06;38.53;94458.36;1660588;84;21073;-60
2022/07/05 10:59:05;;;;;;;11.10;9.13;;;;;;;34.47;37.08;94457.69;1631388;85;21061;-61
2022/07/05 11:01:34;;;;;;;13.72;9.43;;;;;;;34.72;36.74;94457.98;1619896;85;21278;-59
2022/07/05 11:04:07;;;;;;;10.98;8.63;;;;;;;34.90;36.17;94457.76;1653978;83;21208;-61
2022/07/05 11:06:43;;;;;;;16.67;8.60;;;;;;;34.85;36.03;94458.86;1663415;84;21193;-60
2022/07/05 11:09:16;;;;;;;10.05;8.13;;;;;;;34.91;36.52;94457.82;1640500;85;21610;-61
2022/07/05 11:11:47;;;;;;;9.90;7.97;;;;;;;34.93;36.19;94456.55;1661905;84;21168;-61
2022/07/05 11:14:26;;;;;;;12.53;8.87;;;;;;;35.11;35.61;94459.17;1668541;83;21380;-58
2022/07/05 11:17:22;;;;;;;12.13;9.28;;;;;;;35.11;35.61;94459.17;1656583;84;21457;-60
2022/07/05 11:20:10;;;;;;;10.32;9.25;;;;;;;34.70;35.90;94452.83;1657306;83;21729;-63
2022/07/05 11:23:06;;;;;;;13.08;8.80;;;;;;;34.25;36.20;94447.62;1640500;85;21101;-56
2022/07/05 11:25:44;;;;;;;13.80;8.88;;;;;;;33.65;36.72;94441.84;1660437;84;21046;-55
2022/07/05 11:28:23;;;;;;;9.33;8.18;;;;;;;32.97;37.54;94444.03;1658789;84;21831;-59
2022/07/05 11:31:01;;;;;;;12.53;8.63;;;;;;;32.48;38.78;94433.97;1654670;84;20983;-54
2022/07/05 11:33:38;;;;;;;10.63;8.93;;;;;;;32.11;39.38;94424.66;1661536;85;21564;-56
2022/07/05 11:36:22;;;;;;;10.23;9.20;;;;;;;31.83;40.02;94429.63;1656978;84;20985;-56
2022/07/05 11:39:18;;;;;;;11.85;9.48;;;;;;;31.56;40.62;94426.04;1657390;84;21239;-55